createdAt,value
2016-10-02T04:02:06.093Z,20.24
2016-10-02T04:02:31.674Z,20.24
2016-10-02T04:02:57.302Z,20.28
2016-10-02T04:03:22.840Z,20.23
2016-10-02T04:03:48.399Z,20.2
2016-10-02T04:04:13.955Z,20.24
2016-10-02T04:04:39.517Z,20.21
2016-10-02T04:05:05.091Z,20.16
2016-10-02T04:05:30.621Z,20.18
2016-10-02T04:05:56.223Z,20.18
2016-10-02T04:06:21.800Z,20.25
2016-10-02T04:06:47.391Z,20.2
2016-10-02T04:07:12.956Z,20.24
2016-10-02T04:07:38.524Z,20.2
2016-10-02T04:08:04.235Z,20.25
2016-10-02T04:08:29.814Z,20.27
2016-10-02T04:08:55.407Z,20.21
2016-10-02T04:09:21.022Z,20.2
2016-10-02T04:09:46.605Z,20.27
2016-10-02T04:10:12.149Z,20.21
2016-10-02T04:10:37.724Z,20.18
2016-10-02T04:11:03.396Z,20.25
2016-10-02T04:11:28.975Z,20.21
2016-10-02T04:11:54.546Z,20.25
2016-10-02T04:12:20.099Z,20.16
2016-10-02T04:12:45.766Z,20.25
2016-10-02T04:13:11.365Z,20.28
2016-10-02T04:13:36.902Z,20.21
2016-10-02T04:14:02.582Z,20.25
2016-10-02T04:14:28.147Z,20.18
2016-10-02T04:14:53.889Z,20.27
2016-10-02T04:15:19.462Z,20.2
2016-10-02T04:15:45.020Z,20.21
2016-10-02T04:16:10.592Z,20.18
2016-10-02T04:16:36.169Z,20.23
2016-10-02T04:17:01.726Z,20.21
2016-10-02T04:17:27.282Z,20.25
2016-10-02T04:17:52.846Z,20.23
2016-10-02T04:18:18.412Z,20.2
2016-10-02T04:18:44.016Z,20.21
2016-10-02T04:19:09.579Z,20.23
2016-10-02T04:19:35.133Z,20.16
2016-10-02T04:20:00.672Z,20.18
2016-10-02T04:20:26.256Z,20.21
2016-10-02T04:20:51.844Z,20.09
2016-10-02T04:21:17.406Z,20.2
2016-10-02T04:21:42.966Z,20.16
2016-10-02T04:22:08.539Z,20.18
2016-10-02T04:22:34.085Z,20.15
2016-10-02T04:22:59.726Z,20.16
2016-10-02T04:23:25.295Z,20.09
2016-10-02T04:23:50.850Z,20.2
2016-10-02T04:24:16.449Z,20.2
2016-10-02T04:24:42.016Z,20.16
2016-10-02T04:25:07.582Z,20.16
2016-10-02T04:25:33.141Z,20.2
2016-10-02T04:25:58.772Z,20.16
2016-10-02T04:26:24.374Z,20.09
2016-10-02T04:26:49.944Z,20.09
2016-10-02T04:27:15.497Z,20.08
2016-10-02T04:27:41.036Z,20.18
2016-10-02T04:28:06.626Z,20.12
2016-10-02T04:28:32.192Z,20.13
2016-10-02T04:28:57.742Z,20.12
2016-10-02T04:29:23.325Z,20.05
2016-10-02T04:29:48.877Z,20.1
2016-10-02T04:30:14.620Z,20.18
2016-10-02T04:30:40.203Z,20.09
2016-10-02T04:31:05.744Z,20.12
2016-10-02T04:31:31.315Z,20.09
2016-10-02T04:31:56.874Z,20.13
2016-10-02T04:32:22.443Z,20.16
2016-10-02T04:32:48.002Z,20.05
2016-10-02T04:33:13.656Z,20.16
2016-10-02T04:33:39.234Z,20.13
2016-10-02T04:34:04.786Z,20.12
2016-10-02T04:34:30.354Z,20.16
2016-10-02T04:34:55.932Z,20.09
2016-10-02T04:35:21.531Z,20.05
2016-10-02T04:35:47.115Z,20.09
2016-10-02T04:36:12.722Z,20.13
2016-10-02T04:36:38.342Z,20.06
2016-10-02T04:37:03.848Z,20.1
2016-10-02T04:37:29.398Z,20.09
2016-10-02T04:37:54.993Z,20.15
2016-10-02T04:38:20.548Z,20.09
2016-10-02T04:38:46.122Z,20.13
2016-10-02T04:39:11.683Z,20.12
2016-10-02T04:39:37.263Z,20.08
2016-10-02T04:40:02.814Z,20.12
2016-10-02T04:40:28.454Z,20.13
2016-10-02T04:40:54.106Z,20.16
2016-10-02T04:41:19.677Z,20.13
2016-10-02T04:41:45.242Z,20.15
2016-10-02T04:42:10.860Z,20.12
2016-10-02T04:42:36.434Z,20.13
2016-10-02T04:43:01.986Z,20.09
2016-10-02T04:44:05.334Z,20.1
2016-10-02T04:45:13.631Z,20.06
2016-10-02T04:45:39.186Z,20.13
2016-10-02T04:46:32.172Z,20.06
2016-10-02T04:46:57.787Z,20.12
2016-10-02T04:47:23.365Z,20.09
2016-10-02T04:47:49.064Z,20.15
2016-10-02T04:48:14.611Z,20.05
2016-10-02T04:48:40.195Z,20.09
2016-10-02T04:49:05.755Z,20.05
2016-10-02T04:49:31.385Z,20.13
2016-10-02T04:49:56.934Z,20.12
2016-10-02T04:50:22.508Z,20.05
2016-10-02T04:50:48.075Z,20.03
2016-10-02T04:51:13.648Z,20.1
2016-10-02T04:51:39.246Z,20.02
2016-10-02T04:52:04.853Z,20.09
2016-10-02T04:52:30.409Z,20.12
2016-10-02T04:52:55.975Z,20.12
2016-10-02T04:53:21.571Z,20.12
2016-10-02T04:53:47.191Z,19.98
2016-10-02T04:54:12.768Z,20.02
2016-10-02T04:54:38.417Z,20.06
2016-10-02T04:55:03.979Z,20.09
2016-10-02T04:55:29.554Z,20.13
2016-10-02T04:55:55.261Z,20.12
2016-10-02T04:56:20.851Z,20.1
2016-10-02T04:56:46.425Z,20.1
2016-10-02T04:57:12.052Z,20.09
2016-10-02T04:57:37.699Z,20.09
2016-10-02T04:58:03.246Z,20.03
2016-10-02T04:58:28.815Z,19.98
2016-10-02T04:58:54.446Z,20.09
2016-10-02T04:59:20.093Z,20.12
2016-10-02T04:59:45.624Z,20.06
2016-10-02T05:00:11.326Z,20.06
2016-10-02T05:00:36.884Z,20.06
2016-10-02T05:01:02.440Z,20.1
2016-10-02T05:01:28.084Z,20.09
2016-10-02T05:01:53.676Z,20.05
2016-10-02T05:02:19.222Z,20.05
2016-10-02T05:02:44.792Z,20.03
2016-10-02T05:03:10.369Z,20.02
2016-10-02T05:03:35.934Z,20.05
2016-10-02T05:04:01.497Z,20.02
2016-10-02T05:04:27.056Z,20.05
2016-10-02T05:04:52.619Z,20.09
2016-10-02T05:05:18.234Z,20.05
2016-10-02T05:05:43.792Z,20.09
2016-10-02T05:06:09.362Z,20.05
2016-10-02T05:06:35.011Z,20
2016-10-02T05:07:00.618Z,19.98
2016-10-02T05:07:26.193Z,20.06
2016-10-02T05:07:51.775Z,20
2016-10-02T05:08:17.342Z,20.08
2016-10-02T05:08:42.896Z,20.08
2016-10-02T05:09:08.462Z,20.03
2016-10-02T05:09:34.024Z,20.03
2016-10-02T05:09:59.583Z,19.98
2016-10-02T05:10:25.216Z,20.08
2016-10-02T05:10:50.784Z,20.05
2016-10-02T05:11:16.372Z,20.1
2016-10-02T05:11:41.939Z,20.03
2016-10-02T05:12:07.482Z,20.02
2016-10-02T05:12:33.071Z,20
2016-10-02T05:12:58.651Z,20.05
2016-10-02T05:13:24.221Z,20.06
2016-10-02T05:13:49.784Z,20.05
2016-10-02T05:14:15.412Z,20.1
2016-10-02T05:14:40.984Z,20
2016-10-02T05:15:06.553Z,20.03
2016-10-02T05:15:32.113Z,20.02
2016-10-02T05:15:57.712Z,20.06
2016-10-02T05:16:23.331Z,20.03
2016-10-02T05:16:48.893Z,20.06
2016-10-02T05:17:14.553Z,19.97
2016-10-02T05:17:40.152Z,19.97
2016-10-02T05:18:05.715Z,20.05
2016-10-02T05:18:31.397Z,20.03
2016-10-02T05:18:56.938Z,20.05
2016-10-02T05:19:22.522Z,20.05
2016-10-02T05:19:48.080Z,19.98
2016-10-02T05:20:13.773Z,20
2016-10-02T05:20:39.341Z,19.93
2016-10-02T05:21:05.005Z,20
2016-10-02T05:21:30.652Z,20.06
2016-10-02T05:21:56.213Z,19.95
2016-10-02T05:22:21.777Z,20.05
2016-10-02T05:22:47.491Z,20.08
2016-10-02T05:23:13.047Z,19.93
2016-10-02T05:23:38.593Z,20.05
2016-10-02T05:24:04.148Z,19.98
2016-10-02T05:24:29.685Z,19.97
2016-10-02T05:24:55.245Z,20.03
2016-10-02T05:25:20.813Z,19.98
2016-10-02T05:25:46.392Z,20.05
2016-10-02T05:26:11.981Z,20.03
2016-10-02T05:26:37.515Z,20.03
2016-10-02T05:27:03.067Z,20.02
2016-10-02T05:27:28.616Z,20.02
2016-10-02T05:27:54.174Z,19.93
2016-10-02T05:28:19.740Z,20
2016-10-02T05:28:45.354Z,19.97
2016-10-02T05:29:10.911Z,20.02
2016-10-02T05:29:36.614Z,20
2016-10-02T05:30:02.187Z,19.98
2016-10-02T05:30:27.783Z,20
2016-10-02T05:30:53.350Z,20.03
2016-10-02T05:31:18.889Z,19.98
2016-10-02T05:31:44.520Z,20
2016-10-02T05:32:10.154Z,19.97
2016-10-02T05:32:35.718Z,19.95
2016-10-02T05:33:01.385Z,19.97
2016-10-02T05:33:26.961Z,19.97
2016-10-02T05:33:52.535Z,19.94
2016-10-02T05:34:18.163Z,19.98
2016-10-02T05:34:43.784Z,20.05
2016-10-02T05:35:09.358Z,19.98
2016-10-02T05:36:02.397Z,20
2016-10-02T05:36:27.982Z,20.05
2016-10-02T05:36:53.530Z,20.03
2016-10-02T05:37:19.098Z,19.94
2016-10-02T05:37:44.671Z,19.95
2016-10-02T05:38:10.220Z,20.03
2016-10-02T05:38:35.868Z,20.03
2016-10-02T05:39:01.430Z,20
2016-10-02T05:39:26.993Z,20.02
2016-10-02T05:39:52.597Z,20.06
2016-10-02T05:40:18.132Z,20.02
2016-10-02T05:40:43.698Z,20.06
2016-10-02T05:41:09.238Z,19.98
2016-10-02T05:41:34.812Z,20.03
2016-10-02T05:42:00.402Z,20
2016-10-02T05:42:26.056Z,19.95
2016-10-02T05:42:51.623Z,20
2016-10-02T05:43:17.213Z,20.03
2016-10-02T05:45:45.906Z,20.05
2016-10-02T05:46:11.446Z,19.97
2016-10-02T05:46:37.001Z,20.02
2016-10-02T05:47:02.586Z,20.08
2016-10-02T05:47:28.137Z,20.06
2016-10-02T05:47:53.701Z,19.91
2016-10-02T05:48:19.278Z,19.98
2016-10-02T05:48:44.858Z,20
2016-10-02T05:49:10.626Z,20.08
2016-10-02T05:49:36.198Z,20.03
2016-10-02T05:50:01.749Z,20.08
2016-10-02T05:50:27.361Z,19.95
2016-10-02T05:50:53.038Z,19.97
2016-10-02T05:51:18.597Z,19.97
2016-10-02T05:51:44.179Z,20
2016-10-02T05:52:09.798Z,19.98
2016-10-02T05:52:35.369Z,20.03
2016-10-02T05:53:00.984Z,19.97
2016-10-02T05:53:26.531Z,20.03
2016-10-02T05:53:52.101Z,20.03
2016-10-02T05:54:17.667Z,19.98
2016-10-02T05:54:43.363Z,20.06
2016-10-02T05:55:08.979Z,20
2016-10-02T05:55:34.534Z,20.03
2016-10-02T05:56:00.209Z,20.05
2016-10-02T05:56:25.798Z,19.94
2016-10-02T05:56:51.371Z,20.05
2016-10-02T05:57:16.921Z,19.94
2016-10-02T05:57:42.480Z,20.08
2016-10-02T05:58:08.030Z,20.06
2016-10-02T05:58:33.592Z,20.03
2016-10-02T05:58:59.137Z,20.05
2016-10-02T05:59:24.744Z,20.03
2016-10-02T05:59:50.321Z,20.03
2016-10-02T06:00:15.944Z,20.05
2016-10-02T06:01:14.075Z,20.05
2016-10-02T06:01:39.627Z,19.95
2016-10-02T06:02:05.212Z,20.03
2016-10-02T06:02:30.772Z,19.95
2016-10-02T06:02:56.336Z,20
2016-10-02T06:03:22.011Z,19.95
2016-10-02T06:03:47.561Z,19.98
2016-10-02T06:04:13.176Z,20.03
2016-10-02T06:04:38.783Z,20.06
2016-10-02T06:05:04.419Z,20.05
2016-10-02T06:05:30.018Z,20.05
2016-10-02T06:05:55.562Z,19.97
2016-10-02T06:06:21.240Z,19.91
2016-10-02T06:06:46.823Z,20.05
2016-10-02T06:07:12.420Z,20.03
2016-10-02T06:07:37.976Z,20.06
2016-10-02T06:08:03.517Z,19.93
2016-10-02T06:08:29.082Z,20.03
2016-10-02T06:08:54.631Z,20.03
2016-10-02T06:09:20.187Z,20
2016-10-02T06:09:45.738Z,20.03
2016-10-02T06:10:11.293Z,20.03
2016-10-02T06:10:36.835Z,20.08
2016-10-02T06:11:02.399Z,19.98
2016-10-02T06:11:27.964Z,20.06
2016-10-02T06:11:53.524Z,20
2016-10-02T06:12:19.097Z,20.08
2016-10-02T06:12:44.727Z,20
2016-10-02T06:13:10.361Z,20
2016-10-02T06:13:35.909Z,20.06
2016-10-02T06:14:01.549Z,20.03
2016-10-02T06:14:27.097Z,19.94
2016-10-02T06:14:52.669Z,19.94
2016-10-02T06:15:18.298Z,19.97
2016-10-02T06:15:43.956Z,20.03
2016-10-02T06:16:09.514Z,20.06
2016-10-02T06:16:35.095Z,20.05
2016-10-02T06:17:00.705Z,20.05
2016-10-02T06:17:26.261Z,20.02
2016-10-02T06:17:51.827Z,20.03
2016-10-02T06:18:17.414Z,20
2016-10-02T06:18:42.966Z,20.09
2016-10-02T06:19:08.535Z,20.08
2016-10-02T06:19:34.086Z,20.08
2016-10-02T06:19:59.661Z,20.02
2016-10-02T06:20:25.231Z,20
2016-10-02T06:20:50.795Z,20.02
2016-10-02T06:21:16.378Z,20.05
2016-10-02T06:21:41.938Z,20.02
2016-10-02T06:22:07.499Z,20
2016-10-02T06:22:33.071Z,19.98
2016-10-02T06:22:58.711Z,20.03
2016-10-02T06:23:24.352Z,20
2016-10-02T06:23:49.929Z,20
2016-10-02T06:24:15.493Z,20.03
2016-10-02T06:24:41.047Z,20
2016-10-02T06:25:06.606Z,20.06
2016-10-02T06:25:32.171Z,20.08
2016-10-02T06:25:57.733Z,20.08
2016-10-02T06:26:23.411Z,20.05
2016-10-02T06:26:48.967Z,20.05
2016-10-02T06:27:14.561Z,20.06
2016-10-02T06:27:40.115Z,20.05
2016-10-02T06:28:05.700Z,20.03
2016-10-02T06:28:31.307Z,20.12
2016-10-02T06:28:56.875Z,20.05
2016-10-02T06:29:22.488Z,20.1
2016-10-02T06:29:48.057Z,20.1
2016-10-02T06:30:13.627Z,20.05
2016-10-02T06:30:39.362Z,20.02
2016-10-02T06:31:04.781Z,20.13
2016-10-02T06:31:30.388Z,20.05
2016-10-02T06:31:55.970Z,20.06
2016-10-02T06:32:21.543Z,20.05
2016-10-02T06:32:47.125Z,20.02
2016-10-02T06:33:12.709Z,20.06
2016-10-02T06:33:38.268Z,20.13
2016-10-02T06:34:36.440Z,20.1
2016-10-02T06:35:02.010Z,20.06
2016-10-02T06:35:27.575Z,20.15
2016-10-02T06:35:53.157Z,20.08
2016-10-02T06:36:18.729Z,20.1
2016-10-02T06:36:44.285Z,20.03
2016-10-02T06:37:32.370Z,20.02
2016-10-02T06:37:57.931Z,20
2016-10-02T06:38:23.506Z,20.05
2016-10-02T06:38:49.069Z,20.13
2016-10-02T06:39:14.634Z,20.1
2016-10-02T06:39:40.458Z,20.12
2016-10-02T06:40:06.033Z,20.05
2016-10-02T06:40:31.565Z,20.09
2016-10-02T06:40:57.122Z,20.12
2016-10-02T06:41:22.696Z,20.03
2016-10-02T06:41:48.266Z,20.05
2016-10-02T06:42:13.869Z,20.13
2016-10-02T06:42:39.467Z,20.16
2016-10-02T06:43:05.047Z,20.12
2016-10-02T06:43:30.595Z,20.13
2016-10-02T06:44:39.030Z,20.09
2016-10-02T06:45:04.640Z,20.12
2016-10-02T06:45:30.202Z,20.09
2016-10-02T06:45:55.801Z,20.15
2016-10-02T06:46:21.421Z,20.12
2016-10-02T06:46:46.999Z,20.1
2016-10-02T06:47:12.583Z,20.13
2016-10-02T06:47:38.180Z,20.09
2016-10-02T06:48:03.750Z,20.12
2016-10-02T06:48:29.317Z,20.1
2016-10-02T06:48:54.876Z,20.09
2016-10-02T06:49:20.641Z,20.15
2016-10-02T06:49:46.196Z,20.13
2016-10-02T06:50:11.787Z,20.08
2016-10-02T06:50:37.436Z,20.06
2016-10-02T06:51:02.995Z,20.1
2016-10-02T06:51:28.568Z,20.16
2016-10-02T06:51:54.161Z,20.1
2016-10-02T06:52:19.750Z,20.16
2016-10-02T06:52:45.323Z,20.15
2016-10-02T06:53:10.866Z,20.09
2016-10-02T06:54:04.055Z,20.08
2016-10-02T06:54:29.701Z,20.1
2016-10-02T06:54:55.317Z,20.12
2016-10-02T06:55:20.954Z,20.09
2016-10-02T06:55:46.509Z,20.09
2016-10-02T06:56:12.162Z,20.15
2016-10-02T06:56:37.752Z,20.06
2016-10-02T06:57:03.843Z,20.09
2016-10-02T06:57:29.417Z,20.15
2016-10-02T06:57:55.194Z,20.15
2016-10-02T06:58:20.840Z,20.16
2016-10-02T06:58:46.422Z,20.16
2016-10-02T06:59:12.050Z,20.09
2016-10-02T06:59:37.615Z,20.08
2016-10-02T07:00:03.196Z,20.09
2016-10-02T07:00:28.738Z,20.09
2016-10-02T07:00:54.398Z,20.13
2016-10-02T07:01:19.941Z,20.05
2016-10-02T07:01:45.521Z,20.16
2016-10-02T07:02:11.074Z,20.1
2016-10-02T07:02:36.655Z,20.16
2016-10-02T07:03:02.228Z,20.1
2016-10-02T07:03:27.788Z,20.09
2016-10-02T07:03:53.340Z,20.12
2016-10-02T07:04:18.914Z,20.06
2016-10-02T07:04:44.519Z,20.15
2016-10-02T07:05:10.121Z,20.16
2016-10-02T07:05:35.795Z,20.05
2016-10-02T07:06:01.293Z,20.06
2016-10-02T07:06:26.842Z,20.15
2016-10-02T07:06:52.468Z,20.1
2016-10-02T07:07:18.047Z,20.12
2016-10-02T07:07:43.618Z,20.13
2016-10-02T07:08:09.193Z,20.1
2016-10-02T07:08:34.835Z,20.13
2016-10-02T07:09:00.395Z,20.1
2016-10-02T07:09:25.962Z,20.13
2016-10-02T07:09:51.509Z,20.16
2016-10-02T07:10:17.171Z,20.09
2016-10-02T07:10:42.738Z,20.16
2016-10-02T07:11:08.398Z,20.18
2016-10-02T07:11:34.582Z,20.13
2016-10-02T07:12:00.869Z,20.16
2016-10-02T07:12:26.433Z,20.2
2016-10-02T07:13:37.087Z,20.21
2016-10-02T07:14:02.640Z,20.18
2016-10-02T07:14:28.188Z,20.24
2016-10-02T07:14:53.787Z,20.24
2016-10-02T07:15:19.357Z,20.16
2016-10-02T07:15:45.013Z,20.25
2016-10-02T07:16:10.546Z,20.13
2016-10-02T07:16:36.157Z,20.18
2016-10-02T07:17:01.714Z,20.18
2016-10-02T07:17:27.377Z,20.2
2016-10-02T07:17:52.960Z,20.23
2016-10-02T07:18:18.561Z,20.23
2016-10-02T07:18:44.109Z,20.2
2016-10-02T07:19:09.637Z,20.18
2016-10-02T07:19:35.216Z,20.23
2016-10-02T07:20:00.864Z,20.24
2016-10-02T07:20:26.361Z,20.23
2016-10-02T07:20:52.060Z,20.27
2016-10-02T07:21:17.627Z,20.2
2016-10-02T07:21:43.268Z,20.21
2016-10-02T07:22:09.100Z,20.15
2016-10-02T07:22:34.696Z,20.24
2016-10-02T07:23:00.251Z,20.27
2016-10-02T07:23:25.835Z,20.25
2016-10-02T07:23:51.498Z,20.21
2016-10-02T07:24:17.090Z,20.28
2016-10-02T07:24:42.639Z,20.25
2016-10-02T07:25:08.211Z,20.25
2016-10-02T07:25:33.833Z,20.24
2016-10-02T07:25:59.381Z,20.21
2016-10-02T07:26:24.935Z,20.24
2016-10-02T07:26:50.611Z,20.24
2016-10-02T07:27:16.269Z,20.24
2016-10-02T07:27:41.834Z,20.27
2016-10-02T07:28:07.502Z,20.23
2016-10-02T07:28:32.993Z,20.27
2016-10-02T07:28:58.725Z,20.23
2016-10-02T07:29:24.138Z,20.21
2016-10-02T07:29:49.734Z,20.24
2016-10-02T07:30:37.614Z,20.25
2016-10-02T07:31:03.183Z,20.3
2016-10-02T07:31:28.963Z,20.24
2016-10-02T07:31:54.661Z,20.25
2016-10-02T07:32:20.249Z,20.24
2016-10-02T07:32:45.840Z,20.24
2016-10-02T07:33:11.483Z,20.25
2016-10-02T07:33:37.079Z,20.27
2016-10-02T07:34:35.229Z,20.24
2016-10-02T07:35:00.797Z,20.35
2016-10-02T07:35:26.375Z,20.3
2016-10-02T07:35:52.013Z,20.3
2016-10-02T07:36:17.588Z,20.34
2016-10-02T07:36:43.169Z,20.31
2016-10-02T07:37:08.735Z,20.34
2016-10-02T07:37:34.314Z,20.31
2016-10-02T07:38:00.122Z,20.34
2016-10-02T07:38:25.793Z,20.3
2016-10-02T07:38:51.366Z,20.35
2016-10-02T07:39:16.904Z,20.34
2016-10-02T07:39:42.514Z,20.31
2016-10-02T07:40:08.074Z,20.39
2016-10-02T07:40:33.619Z,20.3
2016-10-02T07:40:59.186Z,20.35
2016-10-02T07:41:24.745Z,20.39
2016-10-02T07:41:50.489Z,20.39
2016-10-02T07:42:16.071Z,20.38
2016-10-02T07:42:41.665Z,20.38
2016-10-02T07:43:07.223Z,20.31
2016-10-02T07:43:32.788Z,20.39
2016-10-02T07:44:36.001Z,20.33
2016-10-02T07:45:01.598Z,20.35
2016-10-02T07:45:27.322Z,20.34
2016-10-02T07:45:52.970Z,20.33
2016-10-02T07:46:18.551Z,20.33
2016-10-02T07:46:44.125Z,20.34
2016-10-02T07:47:09.723Z,20.38
2016-10-02T07:47:35.417Z,20.28
2016-10-02T07:48:01.028Z,20.38
2016-10-02T07:48:26.602Z,20.31
2016-10-02T07:48:52.178Z,20.35
2016-10-02T07:49:17.727Z,20.27
2016-10-02T07:49:43.333Z,20.34
2016-10-02T07:50:08.962Z,20.38
2016-10-02T07:50:34.525Z,20.35
2016-10-02T07:51:00.099Z,20.35
2016-10-02T07:51:25.673Z,20.31
2016-10-02T07:51:51.242Z,20.34
2016-10-02T07:52:16.803Z,20.38
2016-10-02T07:52:42.374Z,20.38
2016-10-02T07:53:07.977Z,20.34
2016-10-02T07:53:33.542Z,20.38
2016-10-02T07:53:59.114Z,20.34
2016-10-02T07:54:24.673Z,20.27
2016-10-02T07:54:50.234Z,20.38
2016-10-02T07:55:38.113Z,20.31
2016-10-02T07:56:03.688Z,20.3
2016-10-02T07:56:29.262Z,20.38
2016-10-02T07:56:54.830Z,20.41
2016-10-02T07:57:20.377Z,20.31
2016-10-02T07:58:08.206Z,20.42
2016-10-02T07:58:33.752Z,20.39
2016-10-02T07:58:59.323Z,20.35
2016-10-02T07:59:24.886Z,20.34
2016-10-02T07:59:50.462Z,20.34
2016-10-02T08:00:16.073Z,20.38
2016-10-02T08:00:41.651Z,20.42
2016-10-02T08:01:07.238Z,20.47
2016-10-02T08:01:32.836Z,20.38
2016-10-02T08:01:58.420Z,20.39
2016-10-02T08:02:24.113Z,20.38
2016-10-02T08:02:49.733Z,20.42
2016-10-02T08:03:15.291Z,20.39
2016-10-02T08:03:40.852Z,20.38
2016-10-02T08:04:06.491Z,20.39
2016-10-02T08:04:32.090Z,20.39
2016-10-02T08:04:57.695Z,20.39
2016-10-02T08:05:23.333Z,20.46
2016-10-02T08:05:48.931Z,20.34
2016-10-02T08:06:14.495Z,20.38
2016-10-02T08:06:40.080Z,20.39
2016-10-02T08:07:38.361Z,20.43
2016-10-02T08:08:03.937Z,20.35
2016-10-02T08:08:29.524Z,20.34
2016-10-02T08:08:55.131Z,20.49
2016-10-02T08:09:20.675Z,20.42
2016-10-02T08:09:46.354Z,20.39
2016-10-02T08:10:11.932Z,20.41
2016-10-02T08:10:37.540Z,20.42
2016-10-02T08:11:03.108Z,20.56
2016-10-02T08:11:28.712Z,20.42
2016-10-02T08:11:54.323Z,20.51
2016-10-02T08:12:19.937Z,20.51
2016-10-02T08:12:45.481Z,20.47
2016-10-02T08:13:11.113Z,20.54
2016-10-02T08:13:36.668Z,20.42
2016-10-02T08:14:02.323Z,20.51
2016-10-02T08:14:28.605Z,20.49
2016-10-02T08:14:54.178Z,20.51
2016-10-02T08:15:42.076Z,20.54
2016-10-02T08:16:07.772Z,20.56
2016-10-02T08:16:33.423Z,20.53
2016-10-02T08:16:59.006Z,20.51
2016-10-02T08:17:24.614Z,20.59
2016-10-02T08:17:50.206Z,20.54
2016-10-02T08:18:15.807Z,20.61
2016-10-02T08:18:41.563Z,20.53
2016-10-02T08:19:07.129Z,20.56
2016-10-02T08:19:32.692Z,20.5
2016-10-02T08:19:58.265Z,20.54
2016-10-02T08:20:23.822Z,20.51
2016-10-02T08:20:49.385Z,20.53
2016-10-02T08:21:14.948Z,20.56
2016-10-02T08:21:40.527Z,20.56
2016-10-02T08:22:06.250Z,20.49
2016-10-02T08:22:31.834Z,20.49
2016-10-02T08:22:57.391Z,20.5
2016-10-02T08:23:23.042Z,20.51
2016-10-02T08:23:48.645Z,20.61
2016-10-02T08:24:14.224Z,20.46
2016-10-02T08:24:39.780Z,20.49
2016-10-02T08:25:05.464Z,20.51
2016-10-02T08:25:31.082Z,20.51
2016-10-02T08:25:56.646Z,20.54
2016-10-02T08:26:22.193Z,20.53
2016-10-02T08:26:47.869Z,20.59
2016-10-02T08:27:13.444Z,20.62
2016-10-02T08:27:39.019Z,20.51
2016-10-02T08:28:04.585Z,20.61
2016-10-02T08:28:30.213Z,20.62
2016-10-02T08:28:55.778Z,20.65
2016-10-02T08:29:21.452Z,20.62
2016-10-02T08:29:47.001Z,20.62
2016-10-02T08:30:12.641Z,20.61
2016-10-02T08:30:38.234Z,20.61
2016-10-02T08:31:03.819Z,20.64
2016-10-02T08:31:29.403Z,20.64
2016-10-02T08:31:55.033Z,20.61
2016-10-02T08:32:20.674Z,20.58
2016-10-02T08:32:46.245Z,20.66
2016-10-02T08:33:11.841Z,20.62
2016-10-02T08:33:37.492Z,20.62
2016-10-02T08:34:03.058Z,20.64
2016-10-02T08:34:28.639Z,20.64
2016-10-02T08:34:54.208Z,20.62
2016-10-02T08:35:19.791Z,20.64
2016-10-02T08:35:45.376Z,20.64
2016-10-02T08:36:11.006Z,20.66
2016-10-02T08:36:36.661Z,20.66
2016-10-02T08:37:02.244Z,20.62
2016-10-02T08:37:27.819Z,20.61
2016-10-02T08:37:53.473Z,20.64
2016-10-02T08:38:19.002Z,20.72
2016-10-02T08:38:44.583Z,20.66
2016-10-02T08:39:10.184Z,20.69
2016-10-02T08:39:35.990Z,20.68
2016-10-02T08:40:44.330Z,20.59
2016-10-02T08:41:09.976Z,20.64
2016-10-02T08:41:35.560Z,20.66
2016-10-02T08:42:01.120Z,20.68
2016-10-02T08:42:26.687Z,20.64
2016-10-02T08:42:52.248Z,20.62
2016-10-02T08:43:17.801Z,20.69
2016-10-02T08:43:43.371Z,20.69
2016-10-02T08:44:08.953Z,20.65
2016-10-02T08:44:34.562Z,20.69
2016-10-02T08:45:00.141Z,20.69
2016-10-02T08:45:25.702Z,20.68
2016-10-02T08:45:51.335Z,20.69
2016-10-02T08:46:16.917Z,20.72
2016-10-02T08:46:42.485Z,20.69
2016-10-02T08:47:08.079Z,20.68
2016-10-02T08:47:33.653Z,20.69
2016-10-02T08:47:59.221Z,20.71
2016-10-02T08:48:24.801Z,20.68
2016-10-02T08:48:50.374Z,20.65
2016-10-02T08:49:15.996Z,20.68
2016-10-02T08:49:41.581Z,20.68
2016-10-02T08:50:07.192Z,20.71
2016-10-02T08:50:32.862Z,20.66
2016-10-02T08:50:58.429Z,20.72
2016-10-02T08:51:24.031Z,20.74
2016-10-02T08:51:49.594Z,20.74
2016-10-02T08:52:15.154Z,20.64
2016-10-02T08:52:41.796Z,20.69
2016-10-02T08:53:07.378Z,20.69
2016-10-02T08:53:32.964Z,20.71
2016-10-02T08:53:58.545Z,20.72
2016-10-02T08:54:24.154Z,20.72
2016-10-02T08:54:49.758Z,20.71
2016-10-02T08:55:15.303Z,20.76
2016-10-02T08:55:40.862Z,20.65
2016-10-02T08:56:06.431Z,20.77
2016-10-02T08:56:32.113Z,20.77
2016-10-02T08:56:57.675Z,20.74
2016-10-02T08:57:23.243Z,20.71
2016-10-02T08:57:48.926Z,20.8
2016-10-02T08:58:14.469Z,20.72
2016-10-02T08:58:40.022Z,20.74
2016-10-02T08:59:05.584Z,20.77
2016-10-02T08:59:31.168Z,20.77
2016-10-02T08:59:56.732Z,20.79
2016-10-02T09:00:22.299Z,20.79
2016-10-02T09:00:47.858Z,20.79
2016-10-02T09:01:13.433Z,20.76
2016-10-02T09:01:38.992Z,20.83
2016-10-02T09:02:04.590Z,20.79
2016-10-02T09:02:30.268Z,20.8
2016-10-02T09:02:55.904Z,20.86
2016-10-02T09:03:21.478Z,20.83
2016-10-02T09:03:47.058Z,20.84
2016-10-02T09:04:12.619Z,20.77
2016-10-02T09:04:38.184Z,20.8
2016-10-02T09:05:03.745Z,20.79
2016-10-02T09:05:29.305Z,20.77
2016-10-02T09:05:54.876Z,20.89
2016-10-02T09:06:20.464Z,20.8
2016-10-02T09:06:46.032Z,20.84
2016-10-02T09:07:11.609Z,20.84
2016-10-02T09:07:37.174Z,20.83
2016-10-02T09:08:02.752Z,20.81
2016-10-02T09:08:28.319Z,20.83
2016-10-02T09:08:53.881Z,20.83
2016-10-02T09:09:19.450Z,20.81
2016-10-02T09:09:45.027Z,20.83
2016-10-02T09:10:10.623Z,20.79
2016-10-02T09:10:36.190Z,20.91
2016-10-02T09:11:01.750Z,20.81
2016-10-02T09:11:27.417Z,20.95
2016-10-02T09:11:53.061Z,20.89
2016-10-02T09:12:18.653Z,20.87
2016-10-02T09:12:44.244Z,20.84
2016-10-02T09:13:09.813Z,20.89
2016-10-02T09:13:35.380Z,20.9
2016-10-02T09:14:00.947Z,20.81
2016-10-02T09:14:26.846Z,20.87
2016-10-02T09:14:52.490Z,20.81
2016-10-02T09:15:18.161Z,20.87
2016-10-02T09:15:43.713Z,20.89
2016-10-02T09:16:09.311Z,20.9
2016-10-02T09:16:34.875Z,20.87
2016-10-02T09:17:00.482Z,20.83
2016-10-02T09:17:26.038Z,20.86
2016-10-02T09:17:51.704Z,20.9
2016-10-02T09:18:17.385Z,20.86
2016-10-02T09:18:42.944Z,20.87
2016-10-02T09:19:08.576Z,20.9
2016-10-02T09:19:34.130Z,20.87
2016-10-02T09:19:59.741Z,20.91
2016-10-02T09:20:25.302Z,20.93
2016-10-02T09:20:50.938Z,20.89
2016-10-02T09:21:16.532Z,20.91
2016-10-02T09:21:42.064Z,20.9
2016-10-02T09:22:07.734Z,20.9
2016-10-02T09:22:33.270Z,20.91
2016-10-02T09:22:58.857Z,20.9
2016-10-02T09:23:24.555Z,20.87
2016-10-02T09:23:50.103Z,20.84
2016-10-02T09:24:15.672Z,20.87
2016-10-02T09:24:41.208Z,20.87
2016-10-02T09:25:06.789Z,20.93
2016-10-02T09:25:32.362Z,20.9
2016-10-02T09:25:57.912Z,20.84
2016-10-02T09:26:23.481Z,20.87
2016-10-02T09:26:49.051Z,20.91
2016-10-02T09:27:14.665Z,20.87
2016-10-02T09:27:40.302Z,20.89
2016-10-02T09:28:05.870Z,20.89
2016-10-02T09:28:31.464Z,20.86
2016-10-02T09:28:57.075Z,20.87
2016-10-02T09:29:22.702Z,20.91
2016-10-02T09:29:48.281Z,20.91
2016-10-02T09:30:13.829Z,20.87
2016-10-02T09:30:39.396Z,20.87
2016-10-02T09:31:04.949Z,20.83
2016-10-02T09:31:30.651Z,20.89
2016-10-02T09:31:56.222Z,20.86
2016-10-02T09:32:21.864Z,20.89
2016-10-02T09:32:47.597Z,20.83
2016-10-02T09:33:40.618Z,20.83
2016-10-02T09:34:06.188Z,20.89
2016-10-02T09:34:31.812Z,20.9
2016-10-02T09:34:57.393Z,20.84
2016-10-02T09:35:45.415Z,20.9
2016-10-02T09:36:11.106Z,20.86
2016-10-02T09:36:36.929Z,20.86
2016-10-02T09:37:02.599Z,20.89
2016-10-02T09:37:28.212Z,20.95
2016-10-02T09:37:53.845Z,20.86
2016-10-02T09:38:19.537Z,20.87
2016-10-02T09:38:45.081Z,20.87
2016-10-02T09:39:10.736Z,20.83
2016-10-02T09:39:36.331Z,20.9
2016-10-02T09:40:01.908Z,20.95
2016-10-02T09:40:27.514Z,20.9
2016-10-02T09:40:53.088Z,20.91
2016-10-02T09:41:18.637Z,20.89
2016-10-02T09:41:44.221Z,20.81
2016-10-02T09:42:09.808Z,20.87
2016-10-02T09:42:35.385Z,20.9
2016-10-02T09:43:01.003Z,20.93
2016-10-02T09:43:26.583Z,20.95
2016-10-02T09:43:52.305Z,20.93
2016-10-02T09:44:45.486Z,20.95
2016-10-02T09:45:11.084Z,20.98
2016-10-02T09:45:36.640Z,20.95
2016-10-02T09:46:02.391Z,21.01
2016-10-02T09:46:27.985Z,20.99